sensor_id;sensor_type;location;lat;lon;timestamp;pressure;altitude;pressure_sealevel;temperature;humidity
57616;BME280;43816;52.054;-9.494;2022-11-09T00:00:05;98992.44;;;20.22;45.52
57616;BME280;43816;52.054;-9.494;2022-11-09T00:00:16;98992.03;;;20.18;45.42
57616;BME280;43816;52.054;-9.494;2022-11-09T00:00:27;98984.75;;;20.12;45.42
57616;BME280;43816;52.054;-9.494;2022-11-09T00:00:37;98992.25;;;20.17;45.58
57616;BME280;43816;52.054;-9.494;2022-11-09T00:00:48;99005.25;;;20.21;45.45
57616;BME280;43816;52.054;-9.494;2022-11-09T00:01:03;98980.13;;;20.12;45.56
57616;BME280;43816;52.054;-9.494;2022-11-09T00:01:13;98995.84;;;20.17;45.47
57616;BME280;43816;52.054;-9.494;2022-11-09T00:01:25;99001.47;;;20.22;45.46
57616;BME280;43816;52.054;-9.494;2022-11-09T00:01:36;99001.47;;;20.22;45.44
57616;BME280;43816;52.054;-9.494;2022-11-09T00:01:47;98997.06;;;20.21;45.54
57616;BME280;43816;52.054;-9.494;2022-11-09T00:01:57;98994.38;;;20.14;45.47
57616;BME280;43816;52.054;-9.494;2022-11-09T00:02:07;99002.28;;;20.23;45.66
57616;BME280;43816;52.054;-9.494;2022-11-09T00:02:18;98989.16;;;20.13;45.54
57616;BME280;43816;52.054;-9.494;2022-11-09T00:02:28;99001.91;;;20.19;45.38
57616;BME280;43816;52.054;-9.494;2022-11-09T00:02:38;98996.44;;;20.19;45.42
57616;BME280;43816;52.054;-9.494;2022-11-09T00:02:48;98992.25;;;20.17;45.45
57616;BME280;43816;52.054;-9.494;2022-11-09T00:02:59;98988.53;;;20.11;45.43
57616;BME280;43816;52.054;-9.494;2022-11-09T00:03:09;99010.72;;;20.21;45.53
57616;BME280;43816;52.054;-9.494;2022-11-09T00:03:20;98996.72;;;20.11;45.49
57616;BME280;43816;52.054;-9.494;2022-11-09T00:03:30;99001.31;;;20.17;45.58
57616;BME280;43816;52.054;-9.494;2022-11-09T00:03:41;99009.66;;;20.22;45.40
57616;BME280;43816;52.054;-9.494;2022-11-09T00:03:56;98988.97;;;20.08;45.47
57616;BME280;43816;52.054;-9.494;2022-11-09T00:04:07;99010.72;;;20.21;45.63
57616;BME280;43816;52.054;-9.494;2022-11-09T00:04:18;99001.91;;;20.19;45.22
57616;BME280;43816;52.054;-9.494;2022-11-09T00:04:28;99009.88;;;20.21;45.61
57616;BME280;43816;52.054;-9.494;2022-11-09T00:04:38;98982.69;;;20.07;45.51
57616;BME280;43816;52.054;-9.494;2022-11-09T00:04:48;98992.94;;;20.12;45.47
57616;BME280;43816;52.054;-9.494;2022-11-09T00:04:59;99010.72;;;20.21;45.43
57616;BME280;43816;52.054;-9.494;2022-11-09T00:05:09;99006.53;;;20.19;45.59
57616;BME280;43816;52.054;-9.494;2022-11-09T00:05:19;99003.59;;;20.20;45.47
57616;BME280;43816;52.054;-9.494;2022-11-09T00:05:29;99001.13;;;20.12;45.41
57616;BME280;43816;52.054;-9.494;2022-11-09T00:05:40;98991.88;;;20.13;45.64
57616;BME280;43816;52.054;-9.494;2022-11-09T00:05:54;99010.72;;;20.21;45.52
57616;BME280;43816;52.054;-9.494;2022-11-09T00:06:05;99013.66;;;20.20;45.41
57616;BME280;43816;52.054;-9.494;2022-11-09T00:06:15;98991.03;;;20.12;45.26
57616;BME280;43816;52.054;-9.494;2022-11-09T00:06:27;99002.97;;;20.18;45.42
57616;BME280;43816;52.054;-9.494;2022-11-09T00:06:38;99005.25;;;20.21;45.49
57616;BME280;43816;52.054;-9.494;2022-11-09T00:06:48;99009.50;;;20.17;45.38
57616;BME280;43816;52.054;-9.494;2022-11-09T00:06:58;98992.31;;;20.10;45.50
57616;BME280;43816;52.054;-9.494;2022-11-09T00:07:09;99002.56;;;20.14;45.54
57616;BME280;43816;52.054;-9.494;2022-11-09T00:07:19;99003.19;;;20.17;45.32
57616;BME280;43816;52.054;-9.494;2022-11-09T00:07:30;99007.38;;;20.19;45.66
57616;BME280;43816;52.054;-9.494;2022-11-09T00:07:40;99002.34;;;20.16;45.62
57616;BME280;43816;52.054;-9.494;2022-11-09T00:07:50;99001.53;;;20.15;45.47
57616;BME280;43816;52.054;-9.494;2022-11-09T00:08:00;99010.72;;;20.21;45.45
57616;BME280;43816;52.054;-9.494;2022-11-09T00:08:13;98996.28;;;20.14;45.10
57616;BME280;43816;52.054;-9.494;2022-11-09T00:08:24;99005.31;;;20.14;45.42
57616;BME280;43816;52.054;-9.494;2022-11-09T00:08:38;99014.09;;;20.17;45.60
57616;BME280;43816;52.054;-9.494;2022-11-09T00:08:49;99012.22;;;20.17;45.27
57616;BME280;43816;52.054;-9.494;2022-11-09T00:09:01;99011.78;;;20.20;45.41
57616;BME280;43816;52.054;-9.494;2022-11-09T00:09:11;99009.88;;;20.21;45.35
57616;BME280;43816;52.054;-9.494;2022-11-09T00:09:22;98998.19;;;20.13;45.41
57616;BME280;43816;52.054;-9.494;2022-11-09T00:09:32;99000.66;;;20.15;45.40
57616;BME280;43816;52.054;-9.494;2022-11-09T00:09:42;99013.66;;;20.20;45.51
57616;BME280;43816;52.054;-9.494;2022-11-09T00:09:53;99016.59;;;20.18;45.59
57616;BME280;43816;52.054;-9.494;2022-11-09T00:10:03;99002.78;;;20.13;45.51
57616;BME280;43816;52.054;-9.494;2022-11-09T00:10:14;99003.41;;;20.15;45.48
57616;BME280;43816;52.054;-9.494;2022-11-09T00:10:24;99000.28;;;20.11;45.22
57616;BME280;43816;52.054;-9.494;2022-11-09T00:10:34;99008.63;;;20.17;45.40
57616;BME280;43816;52.054;-9.494;2022-11-09T00:10:45;99017.25;;;20.20;45.37
57616;BME280;43816;52.054;-9.494;2022-11-09T00:11:04;99018.28;;;20.19;45.55
57616;BME280;43816;52.054;-9.494;2022-11-09T00:11:15;99012.22;;;20.17;45.32
57616;BME280;43816;52.054;-9.494;2022-11-09T00:11:26;99008.25;;;20.13;45.48
57616;BME280;43816;52.054;-9.494;2022-11-09T00:11:36;98996.72;;;20.11;45.52
57616;BME280;43816;52.054;-9.494;2022-11-09T00:11:46;99014.09;;;20.17;45.42
57616;BME280;43816;52.054;-9.494;2022-11-09T00:11:57;99012.84;;;20.19;45.37
57616;BME280;43816;52.054;-9.494;2022-11-09T00:12:07;99007.00;;;20.15;45.55
57616;BME280;43816;52.054;-9.494;2022-11-09T00:12:17;98991.94;;;20.06;45.45
57616;BME280;43816;52.054;-9.494;2022-11-09T00:12:28;99014.97;;;20.17;45.55
57616;BME280;43816;52.054;-9.494;2022-11-09T00:12:38;99001.97;;;20.12;45.55
57616;BME280;43816;52.054;-9.494;2022-11-09T00:12:48;99013.66;;;20.20;45.45
57616;BME280;43816;52.054;-9.494;2022-11-09T00:12:59;99011.59;;;20.15;45.46
57616;BME280;43816;52.054;-9.494;2022-11-09T00:13:09;99017.06;;;20.15;45.63
57616;BME280;43816;52.054;-9.494;2022-11-09T00:13:20;99000.72;;;20.08;45.48
57616;BME280;43816;52.054;-9.494;2022-11-09T00:13:30;99008.25;;;20.13;45.43
57616;BME280;43816;52.054;-9.494;2022-11-09T00:13:42;99015.56;;;20.19;45.45
57616;BME280;43816;52.054;-9.494;2022-11-09T00:13:52;99002.19;;;20.11;45.42
57616;BME280;43816;52.054;-9.494;2022-11-09T00:14:03;99020.19;;;20.19;45.56
57616;BME280;43816;52.054;-9.494;2022-11-09T00:14:15;99008.25;;;20.13;45.54
57616;BME280;43816;52.054;-9.494;2022-11-09T00:14:26;99013.28;;;20.16;45.36
57616;BME280;43816;52.054;-9.494;2022-11-09T00:14:36;99010.53;;;20.16;45.38
57616;BME280;43816;52.054;-9.494;2022-11-09T00:14:49;99004.69;;;20.12;45.63
57616;BME280;43816;52.054;-9.494;2022-11-09T00:14:59;99012.22;;;20.17;45.55
57616;BME280;43816;52.054;-9.494;2022-11-09T00:15:10;99004.91;;;20.11;45.54
57616;BME280;43816;52.054;-9.494;2022-11-09T00:15:20;99020.63;;;20.15;45.70
57616;BME280;43816;52.054;-9.494;2022-11-09T00:15:30;99004.75;;;20.06;45.44
57616;BME280;43816;52.054;-9.494;2022-11-09T00:15:41;99017.69;;;20.17;45.64
57616;BME280;43816;52.054;-9.494;2022-11-09T00:15:51;99014.09;;;20.17;45.44
57616;BME280;43816;52.054;-9.494;2022-11-09T00:16:01;99021.25;;;20.18;45.52
57616;BME280;43816;52.054;-9.494;2022-11-09T00:16:16;99008.63;;;20.17;45.56
57616;BME280;43816;52.054;-9.494;2022-11-09T00:16:26;98989.41;;;20.05;45.64
57616;BME280;43816;52.054;-9.494;2022-11-09T00:16:36;99009.50;;;20.17;45.61
57616;BME280;43816;52.054;-9.494;2022-11-09T00:16:47;99002.63;;;20.08;45.59
57616;BME280;43816;52.054;-9.494;2022-11-09T00:16:57;99020.41;;;20.17;45.37
57616;BME280;43816;52.054;-9.494;2022-11-09T00:17:07;98993.63;;;20.07;45.63
57616;BME280;43816;52.054;-9.494;2022-11-09T00:17:17;99013.28;;;20.16;45.64
57616;BME280;43816;52.054;-9.494;2022-11-09T00:17:28;98990.50;;;20.04;45.43
57616;BME280;43816;52.054;-9.494;2022-11-09T00:17:38;99010.97;;;20.13;45.61
57616;BME280;43816;52.054;-9.494;2022-11-09T00:17:48;98989.63;;;20.03;45.59
57616;BME280;43816;52.054;-9.494;2022-11-09T00:18:00;99004.47;;;20.14;45.39
57616;BME280;43816;52.054;-9.494;2022-11-09T00:18:10;98995.75;;;20.05;45.69
57616;BME280;43816;52.054;-9.494;2022-11-09T00:18:20;98996.13;;;20.09;45.63
57616;BME280;43816;52.054;-9.494;2022-11-09T00:18:31;99007.81;;;20.16;45.57
57616;BME280;43816;52.054;-9.494;2022-11-09T00:18:43;99010.53;;;20.16;45.55
57616;BME280;43816;52.054;-9.494;2022-11-09T00:18:53;98990.28;;;20.05;45.58
57616;BME280;43816;52.054;-9.494;2022-11-09T00:19:04;99002.19;;;20.11;45.54
57616;BME280;43816;52.054;-9.494;2022-11-09T00:19:14;99007.81;;;20.16;45.54
57616;BME280;43816;52.054;-9.494;2022-11-09T00:19:25;99013.28;;;20.16;45.58
57616;BME280;43816;52.054;-9.494;2022-11-09T00:19:35;99005.53;;;20.13;45.60
57616;BME280;43816;52.054;-9.494;2022-11-09T00:19:46;99010.53;;;20.16;45.59
57616;BME280;43816;52.054;-9.494;2022-11-09T00:19:56;98995.25;;;20.08;45.54
57616;BME280;43816;52.054;-9.494;2022-11-09T00:20:07;99007.22;;;20.14;45.41
57616;BME280;43816;52.054;-9.494;2022-11-09T00:20:17;98998.84;;;20.09;45.51
57616;BME280;43816;52.054;-9.494;2022-11-09T00:20:27;99007.00;;;20.15;45.57
57616;BME280;43816;52.054;-9.494;2022-11-09T00:20:38;98998.47;;;20.05;45.52
57616;BME280;43816;52.054;-9.494;2022-11-09T00:20:48;98990.50;;;20.04;45.45
57616;BME280;43816;52.054;-9.494;2022-11-09T00:21:04;99000.66;;;20.15;45.40
57616;BME280;43816;52.054;-9.494;2022-11-09T00:21:22;99003.88;;;20.12;45.58
57616;BME280;43816;52.054;-9.494;2022-11-09T00:21:32;99011.59;;;20.15;45.40
57616;BME280;43816;52.054;-9.494;2022-11-09T00:21:43;99009.34;;;20.12;45.48
57616;BME280;43816;52.054;-9.494;2022-11-09T00:21:53;99014.31;;;20.15;45.50
57616;BME280;43816;52.054;-9.494;2022-11-09T00:22:03;99008.84;;;20.15;45.59
57616;BME280;43816;52.054;-9.494;2022-11-09T00:22:13;99007.44;;;20.12;45.65
57616;BME280;43816;52.054;-9.494;2022-11-09T00:22:24;99000.72;;;20.08;45.43
57616;BME280;43816;52.054;-9.494;2022-11-09T00:22:34;98998.25;;;20.07;45.67
57616;BME280;43816;52.054;-9.494;2022-11-09T00:22:48;99008.03;;;20.14;45.79
57616;BME280;43816;52.054;-9.494;2022-11-09T00:22:58;98992.38;;;20.03;45.54
57616;BME280;43816;52.054;-9.494;2022-11-09T00:23:09;99005.13;;;20.09;45.60
57616;BME280;43816;52.054;-9.494;2022-11-09T00:23:19;98983.34;;;20.03;45.39
57616;BME280;43816;52.054;-9.494;2022-11-09T00:23:30;99013.50;;;20.14;45.55
57616;BME280;43816;52.054;-9.494;2022-11-09T00:23:40;99011.19;;;20.11;45.41
57616;BME280;43816;52.054;-9.494;2022-11-09T00:23:51;99014.56;;;20.13;45.55
57616;BME280;43816;52.054;-9.494;2022-11-09T00:24:01;99002.63;;;20.08;45.63
57616;BME280;43816;52.054;-9.494;2022-11-09T00:24:12;99003.72;;;20.07;45.45
57616;BME280;43816;52.054;-9.494;2022-11-09T00:24:22;99004.75;;;20.06;45.49
57616;BME280;43816;52.054;-9.494;2022-11-09T00:24:33;99013.56;;;20.08;45.46
57616;BME280;43816;52.054;-9.494;2022-11-09T00:24:43;99023.59;;;20.14;45.54
57616;BME280;43816;52.054;-9.494;2022-11-09T00:24:53;99016.28;;;20.08;45.70
57616;BME280;43816;52.054;-9.494;2022-11-09T00:25:04;99016.28;;;20.08;45.46
57616;BME280;43816;52.054;-9.494;2022-11-09T00:25:14;99005.81;;;20.05;45.54
57616;BME280;43816;52.054;-9.494;2022-11-09T00:25:25;99014.16;;;20.10;45.59
57616;BME280;43816;52.054;-9.494;2022-11-09T00:25:35;99012.72;;;20.07;45.60
57616;BME280;43816;52.054;-9.494;2022-11-09T00:25:45;99015.84;;;20.11;45.53
57616;BME280;43816;52.054;-9.494;2022-11-09T00:25:59;99017.97;;;20.09;45.29
57616;BME280;43816;52.054;-9.494;2022-11-09T00:26:11;98999.13;;;20.01;45.40
57616;BME280;43816;52.054;-9.494;2022-11-09T00:26:22;99022.50;;;20.15;45.59
57616;BME280;43816;52.054;-9.494;2022-11-09T00:26:32;99022.75;;;20.13;45.51
57616;BME280;43816;52.054;-9.494;2022-11-09T00:26:42;99027.97;;;20.15;45.56
57616;BME280;43816;52.054;-9.494;2022-11-09T00:26:53;99018.34;;;20.12;45.35
57616;BME280;43816;52.054;-9.494;2022-11-09T00:27:03;99009.59;;;20.04;45.46
57616;BME280;43816;52.054;-9.494;2022-11-09T00:27:13;99030.97;;;20.13;45.34
57616;BME280;43816;52.054;-9.494;2022-11-09T00:27:24;99012.56;;;20.02;45.51
57616;BME280;43816;52.054;-9.494;2022-11-09T00:27:34;99023.59;;;20.14;45.59
57616;BME280;43816;52.054;-9.494;2022-11-09T00:27:44;99030.09;;;20.13;45.41
57616;BME280;43816;52.054;-9.494;2022-11-09T00:27:54;99020.91;;;20.07;45.35
57616;BME280;43816;52.054;-9.494;2022-11-09T00:28:05;99017.09;;;20.08;45.22
57616;BME280;43816;52.054;-9.494;2022-11-09T00:28:15;99027.16;;;20.14;45.56
57616;BME280;43816;52.054;-9.494;2022-11-09T00:28:25;99025.25;;;20.15;45.40
57616;BME280;43816;52.054;-9.494;2022-11-09T00:28:35;99024.47;;;20.08;45.37
57616;BME280;43816;52.054;-9.494;2022-11-09T00:28:46;99014.63;;;20.07;45.20
57616;BME280;43816;52.054;-9.494;2022-11-09T00:28:56;99017.97;;;20.09;45.50
57616;BME280;43816;52.054;-9.494;2022-11-09T00:29:07;99030.97;;;20.13;45.35
57616;BME280;43816;52.054;-9.494;2022-11-09T00:29:17;99010.22;;;20.06;45.61
57616;BME280;43816;52.054;-9.494;2022-11-09T00:29:27;99030.09;;;20.13;45.54
57616;BME280;43816;52.054;-9.494;2022-11-09T00:29:38;99020.09;;;20.07;45.47
57616;BME280;43816;52.054;-9.494;2022-11-09T00:29:48;99020.09;;;20.07;45.30
57616;BME280;43816;52.054;-9.494;2022-11-09T00:29:58;99031.78;;;20.14;45.39
57616;BME280;43816;52.054;-9.494;2022-11-09T00:30:09;99020.09;;;20.07;45.50
57616;BME280;43816;52.054;-9.494;2022-11-09T00:30:20;99022.97;;;20.12;45.47
57616;BME280;43816;52.054;-9.494;2022-11-09T00:30:30;99032.81;;;20.13;45.54
57616;BME280;43816;52.054;-9.494;2022-11-09T00:30:40;99017.34;;;20.07;45.40
57616;BME280;43816;52.054;-9.494;2022-11-09T00:30:51;99013.78;;;20.06;45.29
57616;BME280;43816;52.054;-9.494;2022-11-09T00:31:03;99030.97;;;20.13;45.40
57616;BME280;43816;52.054;-9.494;2022-11-09T00:31:17;99032.81;;;20.13;45.43
57616;BME280;43816;52.054;-9.494;2022-11-09T00:31:27;99023.44;;;20.09;45.57
57616;BME280;43816;52.054;-9.494;2022-11-09T00:31:37;99031.63;;;20.09;45.46
57616;BME280;43816;52.054;-9.494;2022-11-09T00:31:48;99015.66;;;20.06;45.44
57616;BME280;43816;52.054;-9.494;2022-11-09T00:31:58;99014.22;;;20.03;45.38
57616;BME280;43816;52.054;-9.494;2022-11-09T00:32:08;99016.72;;;20.05;45.53
57616;BME280;43816;52.054;-9.494;2022-11-09T00:32:18;99031.16;;;20.12;45.36
57616;BME280;43816;52.054;-9.494;2022-11-09T00:32:29;99031.16;;;20.12;45.34
57616;BME280;43816;52.054;-9.494;2022-11-09T00:32:39;99012.13;;;20.05;45.32
57616;BME280;43816;52.054;-9.494;2022-11-09T00:32:49;99031.63;;;20.09;45.54
57616;BME280;43816;52.054;-9.494;2022-11-09T00:32:59;99027.59;;;20.11;45.40
57616;BME280;43816;52.054;-9.494;2022-11-09T00:33:10;99022.81;;;20.07;45.43
57616;BME280;43816;52.054;-9.494;2022-11-09T00:33:20;99022.19;;;20.05;45.33
57616;BME280;43816;52.054;-9.494;2022-11-09T00:33:30;99015.50;;;20.01;45.41
57616;BME280;43816;52.054;-9.494;2022-11-09T00:33:41;99039.16;;;20.13;45.38
57616;BME280;43816;52.054;-9.494;2022-11-09T00:33:54;99036.41;;;20.13;45.47
57616;BME280;43816;52.054;-9.494;2022-11-09T00:34:05;99038.28;;;20.13;45.32
57616;BME280;43816;52.054;-9.494;2022-11-09T00:34:15;99026.16;;;20.09;45.45
57616;BME280;43816;52.054;-9.494;2022-11-09T00:34:25;99014.44;;;20.02;45.35
57616;BME280;43816;52.054;-9.494;2022-11-09T00:34:35;99033.91;;;20.12;45.39
57616;BME280;43816;52.054;-9.494;2022-11-09T00:34:46;99022.81;;;20.07;45.28
57616;BME280;43816;52.054;-9.494;2022-11-09T00:34:56;99014.69;;;20.00;45.50
57616;BME280;43816;52.054;-9.494;2022-11-09T00:35:06;99026.59;;;20.06;45.35
57616;BME280;43816;52.054;-9.494;2022-11-09T00:35:17;99029.31;;;20.06;45.49
57616;BME280;43816;52.054;-9.494;2022-11-09T00:35:27;99024.91;;;20.05;45.45
57616;BME280;43816;52.054;-9.494;2022-11-09T00:35:37;99025.53;;;20.07;45.34
57616;BME280;43816;52.054;-9.494;2022-11-09T00:35:48;99022.81;;;20.07;45.38
57616;BME280;43816;52.054;-9.494;2022-11-09T00:35:58;99015.06;;;20.04;45.32
57616;BME280;43816;52.054;-9.494;2022-11-09T00:36:11;99027.41;;;20.06;45.37
57616;BME280;43816;52.054;-9.494;2022-11-09T00:36:23;99035.56;;;20.13;45.48
57616;BME280;43816;52.054;-9.494;2022-11-09T00:36:34;99036.63;;;20.12;45.44
57616;BME280;43816;52.054;-9.494;2022-11-09T00:36:44;99022.56;;;20.08;45.36
57616;BME280;43816;52.054;-9.494;2022-11-09T00:36:54;99034.72;;;20.12;45.31
57616;BME280;43816;52.054;-9.494;2022-11-09T00:37:05;99035.56;;;20.13;45.25
57616;BME280;43816;52.054;-9.494;2022-11-09T00:37:15;99028.88;;;20.09;45.38
57616;BME280;43816;52.054;-9.494;2022-11-09T00:37:28;99023.03;;;20.05;45.54
57616;BME280;43816;52.054;-9.494;2022-11-09T00:37:38;99033.91;;;20.12;45.28
57616;BME280;43816;52.054;-9.494;2022-11-09T00:37:48;99036.63;;;20.12;45.36
57616;BME280;43816;52.054;-9.494;2022-11-09T00:37:59;99032.00;;;20.12;45.47
57616;BME280;43816;52.054;-9.494;2022-11-09T00:38:09;99007.53;;;19.99;45.43
57616;BME280;43816;52.054;-9.494;2022-11-09T00:38:19;98991.03;;;19.87;45.45
57616;BME280;43816;52.054;-9.494;2022-11-09T00:38:30;99029.94;;;20.08;45.47
57616;BME280;43816;52.054;-9.494;2022-11-09T00:38:40;99032.66;;;20.08;45.33
57616;BME280;43816;52.054;-9.494;2022-11-09T00:38:53;99034.78;;;20.06;45.38
57616;BME280;43816;52.054;-9.494;2022-11-09T00:39:04;99029.31;;;20.06;45.39
57616;BME280;43816;52.054;-9.494;2022-11-09T00:39:14;99033.75;;;20.07;45.33
57616;BME280;43816;52.054;-9.494;2022-11-09T00:39:24;99025.13;;;20.03;45.37
57616;BME280;43816;52.054;-9.494;2022-11-09T00:39:35;99030.75;;;20.08;45.41
57616;BME280;43816;52.054;-9.494;2022-11-09T00:39:45;99033.09;;;20.05;45.54
57616;BME280;43816;52.054;-9.494;2022-11-09T00:39:55;99031.44;;;20.04;45.41
57616;BME280;43816;52.054;-9.494;2022-11-09T00:40:06;99029.75;;;20.03;45.45
57616;BME280;43816;52.054;-9.494;2022-11-09T00:40:17;99031.44;;;20.04;45.51
57616;BME280;43816;52.054;-9.494;2022-11-09T00:40:27;99037.91;;;20.09;45.66
57616;BME280;43816;52.054;-9.494;2022-11-09T00:40:37;99032.44;;;20.09;45.53
57616;BME280;43816;52.054;-9.494;2022-11-09T00:40:47;99037.72;;;20.04;45.54
57616;BME280;43816;52.054;-9.494;2022-11-09T00:41:02;99054.06;;;20.11;45.39
57616;BME280;43816;52.054;-9.494;2022-11-09T00:41:12;99037.72;;;20.04;45.42
57616;BME280;43816;52.054;-9.494;2022-11-09T00:41:23;99027.25;;;20.01;45.38
57616;BME280;43816;52.054;-9.494;2022-11-09T00:41:34;99037.28;;;20.07;45.29
57616;BME280;43816;52.054;-9.494;2022-11-09T00:41:44;99043.97;;;20.11;45.41
57616;BME280;43816;52.054;-9.494;2022-11-09T00:41:54;99042.31;;;20.10;45.35
57616;BME280;43816;52.054;-9.494;2022-11-09T00:42:05;99033.97;;;20.05;45.49
57616;BME280;43816;52.054;-9.494;2022-11-09T00:42:15;99041.94;;;20.07;45.22
57616;BME280;43816;52.054;-9.494;2022-11-09T00:42:25;99029.38;;;19.99;45.66
57616;BME280;43816;52.054;-9.494;2022-11-09T00:42:35;99036.91;;;20.04;45.32
57616;BME280;43816;52.054;-9.494;2022-11-09T00:42:46;99052.16;;;20.11;45.31
57616;BME280;43816;52.054;-9.494;2022-11-09T00:42:56;99034.78;;;20.06;45.41
57616;BME280;43816;52.054;-9.494;2022-11-09T00:43:06;99034.41;;;20.02;45.39
57616;BME280;43816;52.054;-9.494;2022-11-09T00:43:17;99044.19;;;20.10;45.71
57616;BME280;43816;52.054;-9.494;2022-11-09T00:43:27;99042.59;;;20.02;45.25
57616;BME280;43816;52.054;-9.494;2022-11-09T00:43:37;99038.34;;;20.06;45.44
57616;BME280;43816;52.054;-9.494;2022-11-09T00:43:48;99032.72;;;20.01;45.35
57616;BME280;43816;52.054;-9.494;2022-11-09T00:43:58;99034.63;;;20.01;45.44
57616;BME280;43816;52.054;-9.494;2022-11-09T00:44:09;99048.59;;;20.11;45.43
57616;BME280;43816;52.054;-9.494;2022-11-09T00:44:19;99036.69;;;20.05;45.34
57616;BME280;43816;52.054;-9.494;2022-11-09T00:44:29;99042.16;;;20.05;45.33
57616;BME280;43816;52.054;-9.494;2022-11-09T00:44:39;99046.91;;;20.10;45.26
57616;BME280;43816;52.054;-9.494;2022-11-09T00:44:50;99034.41;;;20.02;45.29
57616;BME280;43816;52.054;-9.494;2022-11-09T00:45:00;99049.03;;;20.08;45.38
57616;BME280;43816;52.054;-9.494;2022-11-09T00:45:10;99044.66;;;20.07;45.33
57616;BME280;43816;52.054;-9.494;2022-11-09T00:45:21;99050.72;;;20.09;45.32
57616;BME280;43816;52.054;-9.494;2022-11-09T00:45:31;99041.47;;;20.10;45.33
57616;BME280;43816;52.054;-9.494;2022-11-09T00:45:41;99036.91;;;20.04;45.48
57616;BME280;43816;52.054;-9.494;2022-11-09T00:45:52;99046.91;;;20.10;45.42
57616;BME280;43816;52.054;-9.494;2022-11-09T00:46:02;99033.53;;;20.02;45.27
57616;BME280;43816;52.054;-9.494;2022-11-09T00:46:13;99048.81;;;20.09;45.45
57616;BME280;43816;52.054;-9.494;2022-11-09T00:46:23;99034.84;;;19.99;45.69
57616;BME280;43816;52.054;-9.494;2022-11-09T00:46:33;99037.72;;;20.04;45.48
57616;BME280;43816;52.054;-9.494;2022-11-09T00:46:44;99053.44;;;20.09;45.22
57616;BME280;43816;52.054;-9.494;2022-11-09T00:46:54;99049.66;;;20.10;45.29
57616;BME280;43816;52.054;-9.494;2022-11-09T00:47:04;99052.38;;;20.10;45.38
57616;BME280;43816;52.054;-9.494;2022-11-09T00:47:14;99048.81;;;20.09;45.38
57616;BME280;43816;52.054;-9.494;2022-11-09T00:47:25;99036.53;;;20.00;45.25
57616;BME280;43816;52.054;-9.494;2022-11-09T00:47:35;99040.91;;;20.01;45.26
57616;BME280;43816;52.054;-9.494;2022-11-09T00:47:45;99041.97;;;20.00;45.12
57616;BME280;43816;52.054;-9.494;2022-11-09T00:47:56;99043.63;;;20.01;45.38
57616;BME280;43816;52.054;-9.494;2022-11-09T00:48:06;99047.13;;;20.08;45.26
57616;BME280;43816;52.054;-9.494;2022-11-09T00:48:17;99050.72;;;20.09;45.42
57616;BME280;43816;52.054;-9.494;2022-11-09T00:48:27;99036.91;;;20.04;45.25
57616;BME280;43816;52.054;-9.494;2022-11-09T00:48:38;99036.75;;;19.99;45.35
57616;BME280;43816;52.054;-9.494;2022-11-09T00:48:48;99049.88;;;20.08;45.38
57616;BME280;43816;52.054;-9.494;2022-11-09T00:48:59;99053.44;;;20.09;45.22
57616;BME280;43816;52.054;-9.494;2022-11-09T00:49:09;99047.13;;;20.08;45.22
57616;BME280;43816;52.054;-9.494;2022-11-09T00:49:19;99049.88;;;20.08;45.23
57616;BME280;43816;52.054;-9.494;2022-11-09T00:49:29;99050.72;;;20.09;45.36
57616;BME280;43816;52.054;-9.494;2022-11-09T00:49:40;99050.72;;;20.09;45.37
57616;BME280;43816;52.054;-9.494;2022-11-09T00:49:50;99045.91;;;20.04;45.34
57616;BME280;43816;52.054;-9.494;2022-11-09T00:50:00;99049.88;;;20.08;45.34
57616;BME280;43816;52.054;-9.494;2022-11-09T00:50:10;99054.28;;;20.09;45.28
57616;BME280;43816;52.054;-9.494;2022-11-09T00:50:21;99035.66;;;20.00;45.29
57616;BME280;43816;52.054;-9.494;2022-11-09T00:50:31;99052.59;;;20.08;45.11
57616;BME280;43816;52.054;-9.494;2022-11-09T00:50:48;99040.91;;;20.01;45.18
57616;BME280;43816;52.054;-9.494;2022-11-09T00:50:59;99056.19;;;20.09;45.25
57616;BME280;43816;52.054;-9.494;2022-11-09T00:51:09;99055.31;;;20.08;45.34
57616;BME280;43816;52.054;-9.494;2022-11-09T00:51:20;99042.81;;;20.01;45.11
57616;BME280;43816;52.054;-9.494;2022-11-09T00:51:31;99056.19;;;20.09;45.28
57616;BME280;43816;52.054;-9.494;2022-11-09T00:51:41;99057.22;;;20.08;45.21
57616;BME280;43816;52.054;-9.494;2022-11-09T00:51:51;99037.78;;;19.98;45.19
57616;BME280;43816;52.054;-9.494;2022-11-09T00:52:02;99047.81;;;20.04;45.24
57616;BME280;43816;52.054;-9.494;2022-11-09T00:52:12;99054.50;;;20.08;45.21
57616;BME280;43816;52.054;-9.494;2022-11-09T00:52:22;99033.59;;;19.95;45.38
57616;BME280;43816;52.054;-9.494;2022-11-09T00:52:33;99051.59;;;20.03;45.24
57616;BME280;43816;52.054;-9.494;2022-11-09T00:52:43;99044.72;;;20.00;45.34
57616;BME280;43816;52.054;-9.494;2022-11-09T00:52:53;99041.56;;;19.96;45.37
57616;BME280;43816;52.054;-9.494;2022-11-09T00:53:03;99052.84;;;20.07;45.25
57616;BME280;43816;52.054;-9.494;2022-11-09T00:53:14;99047.44;;;20.00;45.41
57616;BME280;43816;52.054;-9.494;2022-11-09T00:53:25;99070.88;;;20.08;45.31
57616;BME280;43816;52.054;-9.494;2022-11-09T00:53:35;99061.03;;;20.07;45.39
57616;BME280;43816;52.054;-9.494;2022-11-09T00:53:46;99058.31;;;20.07;45.18
57616;BME280;43816;52.054;-9.494;2022-11-09T00:53:56;99059.13;;;20.07;45.25
57616;BME280;43816;52.054;-9.494;2022-11-09T00:54:06;99067.16;;;20.02;45.33
57616;BME280;43816;52.054;-9.494;2022-11-09T00:54:16;99067.53;;;20.06;45.40
57616;BME280;43816;52.054;-9.494;2022-11-09T00:54:27;99059.13;;;20.07;45.40
57616;BME280;43816;52.054;-9.494;2022-11-09T00:54:37;99050.78;;;20.02;45.24
57616;BME280;43816;52.054;-9.494;2022-11-09T00:54:47;99045.97;;;19.98;45.45
57616;BME280;43816;52.054;-9.494;2022-11-09T00:54:57;99048.88;;;20.03;45.46
57616;BME280;43816;52.054;-9.494;2022-11-09T00:55:08;99064.59;;;20.07;45.43
57616;BME280;43816;52.054;-9.494;2022-11-09T00:55:18;99055.38;;;20.02;45.40
57616;BME280;43816;52.054;-9.494;2022-11-09T00:55:28;99065.84;;;20.05;45.44
57616;BME280;43816;52.054;-9.494;2022-11-09T00:55:39;99070.06;;;20.07;45.38
57616;BME280;43816;52.054;-9.494;2022-11-09T00:56:00;99074.69;;;20.07;45.28